RJER(METAR)
08/14 15:00
RJER 140600Z 13001KT CAVOK 21/13 Q1007 RMK A2974=
戻る
トップページへ戻る
IMOC Co,.Ltd.